sensor_id;sensor_type;location;lat;lon;timestamp;P1;durP1;ratioP1;P2;durP2;ratioP2
74421;SDS011;62856;51.446;8.360;2022-10-16T00:01:35;5.45;;;2.00;;
74421;SDS011;62856;51.446;8.360;2022-10-16T00:04:07;8.70;;;2.28;;
74421;SDS011;62856;51.446;8.360;2022-10-16T00:06:33;9.20;;;2.58;;
74421;SDS011;62856;51.446;8.360;2022-10-16T00:08:59;7.22;;;1.73;;
74421;SDS011;62856;51.446;8.360;2022-10-16T00:11:29;5.13;;;1.60;;
74421;SDS011;62856;51.446;8.360;2022-10-16T00:14:15;6.85;;;1.95;;
74421;SDS011;62856;51.446;8.360;2022-10-16T00:17:05;8.32;;;1.75;;
74421;SDS011;62856;51.446;8.360;2022-10-16T00:19:31;7.38;;;1.85;;
74421;SDS011;62856;51.446;8.360;2022-10-16T00:22:05;5.07;;;1.63;;
74421;SDS011;62856;51.446;8.360;2022-10-16T00:27:07;7.30;;;2.00;;
74421;SDS011;62856;51.446;8.360;2022-10-16T00:29:33;5.28;;;1.67;;
74421;SDS011;62856;51.446;8.360;2022-10-16T00:31:58;5.55;;;1.73;;
74421;SDS011;62856;51.446;8.360;2022-10-16T00:34:23;5.88;;;1.83;;
74421;SDS011;62856;51.446;8.360;2022-10-16T00:36:49;6.10;;;1.73;;
74421;SDS011;62856;51.446;8.360;2022-10-16T00:39:14;6.93;;;1.75;;
74421;SDS011;62856;51.446;8.360;2022-10-16T00:41:39;5.78;;;1.80;;
74421;SDS011;62856;51.446;8.360;2022-10-16T00:44:41;7.10;;;1.70;;
74421;SDS011;62856;51.446;8.360;2022-10-16T00:47:09;6.22;;;1.50;;
74421;SDS011;62856;51.446;8.360;2022-10-16T00:49:37;5.22;;;1.60;;
74421;SDS011;62856;51.446;8.360;2022-10-16T00:52:03;6.82;;;1.83;;
74421;SDS011;62856;51.446;8.360;2022-10-16T00:54:30;6.53;;;1.73;;
74421;SDS011;62856;51.446;8.360;2022-10-16T00:56:58;5.85;;;1.70;;
74421;SDS011;62856;51.446;8.360;2022-10-16T00:59:27;4.72;;;1.42;;
74421;SDS011;62856;51.446;8.360;2022-10-16T01:01:54;7.10;;;1.58;;
74421;SDS011;62856;51.446;8.360;2022-10-16T01:04:20;4.30;;;1.45;;
74421;SDS011;62856;51.446;8.360;2022-10-16T01:07:00;5.55;;;1.58;;
74421;SDS011;62856;51.446;8.360;2022-10-16T01:15:10;4.85;;;1.40;;
74421;SDS011;62856;51.446;8.360;2022-10-16T01:18:00;6.50;;;2.35;;
74421;SDS011;62856;51.446;8.360;2022-10-16T01:20:31;4.60;;;1.40;;
74421;SDS011;62856;51.446;8.360;2022-10-16T01:23:20;4.78;;;1.40;;
74421;SDS011;62856;51.446;8.360;2022-10-16T01:28:57;5.18;;;1.33;;
74421;SDS011;62856;51.446;8.360;2022-10-16T01:31:48;6.47;;;1.55;;
74421;SDS011;62856;51.446;8.360;2022-10-16T01:34:52;4.45;;;1.35;;
74421;SDS011;62856;51.446;8.360;2022-10-16T01:37:14;4.50;;;1.50;;
74421;SDS011;62856;51.446;8.360;2022-10-16T01:39:45;5.25;;;1.40;;
74421;SDS011;62856;51.446;8.360;2022-10-16T01:42:17;3.85;;;1.38;;
74421;SDS011;62856;51.446;8.360;2022-10-16T01:44:46;4.28;;;1.33;;
74421;SDS011;62856;51.446;8.360;2022-10-16T01:49:40;4.13;;;1.38;;
74421;SDS011;62856;51.446;8.360;2022-10-16T01:52:10;3.33;;;1.10;;
74421;SDS011;62856;51.446;8.360;2022-10-16T01:54:40;8.15;;;1.70;;
74421;SDS011;62856;51.446;8.360;2022-10-16T01:57:08;4.78;;;1.33;;
74421;SDS011;62856;51.446;8.360;2022-10-16T01:59:37;7.43;;;1.73;;
74421;SDS011;62856;51.446;8.360;2022-10-16T02:02:07;4.95;;;1.40;;
74421;SDS011;62856;51.446;8.360;2022-10-16T02:04:38;5.63;;;1.45;;
74421;SDS011;62856;51.446;8.360;2022-10-16T02:07:07;5.78;;;1.70;;
74421;SDS011;62856;51.446;8.360;2022-10-16T02:09:33;4.45;;;1.30;;
74421;SDS011;62856;51.446;8.360;2022-10-16T02:12:00;3.78;;;1.10;;
74421;SDS011;62856;51.446;8.360;2022-10-16T02:14:31;4.32;;;1.38;;
74421;SDS011;62856;51.446;8.360;2022-10-16T02:16:57;3.90;;;1.20;;
74421;SDS011;62856;51.446;8.360;2022-10-16T02:19:23;5.55;;;1.58;;
74421;SDS011;62856;51.446;8.360;2022-10-16T02:21:49;4.70;;;1.58;;
74421;SDS011;62856;51.446;8.360;2022-10-16T02:24:25;5.13;;;1.60;;
74421;SDS011;62856;51.446;8.360;2022-10-16T02:27:01;6.15;;;1.60;;
74421;SDS011;62856;51.446;8.360;2022-10-16T02:29:33;5.10;;;1.45;;
74421;SDS011;62856;51.446;8.360;2022-10-16T02:32:04;4.18;;;1.35;;
74421;SDS011;62856;51.446;8.360;2022-10-16T02:34:32;4.15;;;1.23;;
74421;SDS011;62856;51.446;8.360;2022-10-16T02:36:59;3.63;;;1.48;;
74421;SDS011;62856;51.446;8.360;2022-10-16T02:39:27;5.32;;;1.50;;
74421;SDS011;62856;51.446;8.360;2022-10-16T02:41:53;7.40;;;1.77;;
74421;SDS011;62856;51.446;8.360;2022-10-16T02:44:19;4.97;;;1.50;;
74421;SDS011;62856;51.446;8.360;2022-10-16T02:46:44;5.05;;;1.60;;
74421;SDS011;62856;51.446;8.360;2022-10-16T02:49:10;4.32;;;1.50;;
74421;SDS011;62856;51.446;8.360;2022-10-16T02:51:35;6.35;;;1.60;;
74421;SDS011;62856;51.446;8.360;2022-10-16T02:54:01;6.85;;;1.80;;
74421;SDS011;62856;51.446;8.360;2022-10-16T02:56:27;4.78;;;1.50;;
74421;SDS011;62856;51.446;8.360;2022-10-16T02:58:52;5.43;;;1.65;;
74421;SDS011;62856;51.446;8.360;2022-10-16T03:01:18;5.85;;;1.77;;
74421;SDS011;62856;51.446;8.360;2022-10-16T03:03:43;5.65;;;1.73;;
74421;SDS011;62856;51.446;8.360;2022-10-16T03:06:08;4.95;;;1.55;;
74421;SDS011;62856;51.446;8.360;2022-10-16T03:08:34;5.90;;;1.80;;
74421;SDS011;62856;51.446;8.360;2022-10-16T03:10:59;6.25;;;1.70;;
74421;SDS011;62856;51.446;8.360;2022-10-16T03:13:25;6.30;;;1.92;;
74421;SDS011;62856;51.446;8.360;2022-10-16T03:15:50;5.93;;;1.83;;
74421;SDS011;62856;51.446;8.360;2022-10-16T03:18:16;5.82;;;1.77;;
74421;SDS011;62856;51.446;8.360;2022-10-16T03:20:42;6.95;;;1.95;;
74421;SDS011;62856;51.446;8.360;2022-10-16T03:23:08;5.88;;;1.63;;
74421;SDS011;62856;51.446;8.360;2022-10-16T03:25:33;5.70;;;1.75;;
74421;SDS011;62856;51.446;8.360;2022-10-16T03:27:59;5.93;;;1.85;;
74421;SDS011;62856;51.446;8.360;2022-10-16T03:30:24;4.03;;;1.35;;
74421;SDS011;62856;51.446;8.360;2022-10-16T03:32:50;7.60;;;2.08;;
74421;SDS011;62856;51.446;8.360;2022-10-16T03:35:19;5.53;;;1.65;;
74421;SDS011;62856;51.446;8.360;2022-10-16T03:37:45;5.15;;;1.60;;
74421;SDS011;62856;51.446;8.360;2022-10-16T03:40:10;4.90;;;1.60;;
74421;SDS011;62856;51.446;8.360;2022-10-16T03:42:36;5.30;;;1.52;;
74421;SDS011;62856;51.446;8.360;2022-10-16T03:45:01;5.55;;;1.70;;
74421;SDS011;62856;51.446;8.360;2022-10-16T03:47:27;5.10;;;1.48;;
74421;SDS011;62856;51.446;8.360;2022-10-16T03:49:52;6.15;;;1.85;;
74421;SDS011;62856;51.446;8.360;2022-10-16T03:52:17;6.20;;;1.60;;
74421;SDS011;62856;51.446;8.360;2022-10-16T03:54:43;4.80;;;1.52;;
74421;SDS011;62856;51.446;8.360;2022-10-16T03:57:08;6.28;;;1.90;;
74421;SDS011;62856;51.446;8.360;2022-10-16T03:59:34;5.95;;;1.67;;
74421;SDS011;62856;51.446;8.360;2022-10-16T04:01:59;6.30;;;1.70;;
74421;SDS011;62856;51.446;8.360;2022-10-16T04:04:24;4.70;;;1.50;;
74421;SDS011;62856;51.446;8.360;2022-10-16T04:06:50;3.90;;;1.33;;
74421;SDS011;62856;51.446;8.360;2022-10-16T04:09:15;4.13;;;1.38;;
74421;SDS011;62856;51.446;8.360;2022-10-16T04:11:41;4.43;;;1.43;;
74421;SDS011;62856;51.446;8.360;2022-10-16T04:14:06;4.35;;;1.40;;
74421;SDS011;62856;51.446;8.360;2022-10-16T04:16:31;4.53;;;1.40;;
74421;SDS011;62856;51.446;8.360;2022-10-16T04:18:57;9.75;;;1.75;;
74421;SDS011;62856;51.446;8.360;2022-10-16T04:21:22;4.43;;;1.45;;
74421;SDS011;62856;51.446;8.360;2022-10-16T04:23:47;9.48;;;1.60;;
74421;SDS011;62856;51.446;8.360;2022-10-16T04:26:14;4.95;;;1.58;;
74421;SDS011;62856;51.446;8.360;2022-10-16T04:28:39;6.45;;;1.52;;
74421;SDS011;62856;51.446;8.360;2022-10-16T04:31:05;3.75;;;1.20;;
74421;SDS011;62856;51.446;8.360;2022-10-16T04:33:31;7.25;;;1.40;;
74421;SDS011;62856;51.446;8.360;2022-10-16T04:35:57;4.20;;;1.30;;
74421;SDS011;62856;51.446;8.360;2022-10-16T04:38:24;4.00;;;1.38;;
74421;SDS011;62856;51.446;8.360;2022-10-16T04:40:49;3.35;;;1.23;;
74421;SDS011;62856;51.446;8.360;2022-10-16T04:43:15;4.68;;;1.50;;
74421;SDS011;62856;51.446;8.360;2022-10-16T04:45:40;4.10;;;1.23;;
74421;SDS011;62856;51.446;8.360;2022-10-16T04:48:05;3.95;;;1.23;;
74421;SDS011;62856;51.446;8.360;2022-10-16T04:50:31;3.83;;;1.15;;
74421;SDS011;62856;51.446;8.360;2022-10-16T04:52:56;3.58;;;1.15;;
74421;SDS011;62856;51.446;8.360;2022-10-16T04:55:22;5.10;;;1.20;;
74421;SDS011;62856;51.446;8.360;2022-10-16T04:57:47;4.00;;;1.20;;
74421;SDS011;62856;51.446;8.360;2022-10-16T05:00:12;3.53;;;1.23;;
74421;SDS011;62856;51.446;8.360;2022-10-16T05:02:38;6.18;;;1.33;;
74421;SDS011;62856;51.446;8.360;2022-10-16T05:05:03;5.38;;;1.60;;
74421;SDS011;62856;51.446;8.360;2022-10-16T05:07:29;3.83;;;1.30;;
74421;SDS011;62856;51.446;8.360;2022-10-16T05:09:54;3.47;;;1.23;;
74421;SDS011;62856;51.446;8.360;2022-10-16T05:12:20;6.28;;;1.48;;
74421;SDS011;62856;51.446;8.360;2022-10-16T05:14:45;4.25;;;1.20;;
74421;SDS011;62856;51.446;8.360;2022-10-16T05:17:10;4.47;;;1.20;;
74421;SDS011;62856;51.446;8.360;2022-10-16T05:19:36;5.80;;;1.70;;
74421;SDS011;62856;51.446;8.360;2022-10-16T05:22:02;5.07;;;1.33;;
74421;SDS011;62856;51.446;8.360;2022-10-16T05:24:27;5.10;;;1.70;;
74421;SDS011;62856;51.446;8.360;2022-10-16T05:26:52;6.03;;;1.75;;
74421;SDS011;62856;51.446;8.360;2022-10-16T05:29:18;5.03;;;1.52;;
74421;SDS011;62856;51.446;8.360;2022-10-16T05:31:44;7.40;;;1.77;;
74421;SDS011;62856;51.446;8.360;2022-10-16T05:34:10;5.95;;;1.52;;
74421;SDS011;62856;51.446;8.360;2022-10-16T05:36:35;6.78;;;1.65;;
74421;SDS011;62856;51.446;8.360;2022-10-16T05:39:01;3.88;;;1.30;;
74421;SDS011;62856;51.446;8.360;2022-10-16T05:41:26;5.88;;;1.45;;
74421;SDS011;62856;51.446;8.360;2022-10-16T05:43:52;5.35;;;1.70;;
74421;SDS011;62856;51.446;8.360;2022-10-16T05:46:18;6.05;;;2.13;;
74421;SDS011;62856;51.446;8.360;2022-10-16T05:48:44;5.55;;;2.00;;
74421;SDS011;62856;51.446;8.360;2022-10-16T05:51:10;5.90;;;1.80;;
74421;SDS011;62856;51.446;8.360;2022-10-16T05:53:38;4.07;;;1.40;;
74421;SDS011;62856;51.446;8.360;2022-10-16T05:56:05;6.45;;;1.50;;
74421;SDS011;62856;51.446;8.360;2022-10-16T05:58:35;7.35;;;1.17;;
74421;SDS011;62856;51.446;8.360;2022-10-16T06:01:06;3.67;;;1.40;;
74421;SDS011;62856;51.446;8.360;2022-10-16T06:03:36;4.50;;;1.35;;
74421;SDS011;62856;51.446;8.360;2022-10-16T06:06:11;3.53;;;1.30;;
74421;SDS011;62856;51.446;8.360;2022-10-16T06:08:45;4.13;;;1.30;;
74421;SDS011;62856;51.446;8.360;2022-10-16T06:11:13;7.00;;;1.40;;
74421;SDS011;62856;51.446;8.360;2022-10-16T06:13:40;5.25;;;1.50;;
74421;SDS011;62856;51.446;8.360;2022-10-16T06:16:10;5.00;;;1.50;;
74421;SDS011;62856;51.446;8.360;2022-10-16T06:18:37;3.55;;;1.17;;
74421;SDS011;62856;51.446;8.360;2022-10-16T06:21:06;4.38;;;1.20;;
74421;SDS011;62856;51.446;8.360;2022-10-16T06:23:43;4.00;;;1.27;;
74421;SDS011;62856;51.446;8.360;2022-10-16T06:26:18;3.35;;;1.20;;
74421;SDS011;62856;51.446;8.360;2022-10-16T06:28:48;3.35;;;1.13;;
74421;SDS011;62856;51.446;8.360;2022-10-16T06:33:58;2.35;;;0.93;;
74421;SDS011;62856;51.446;8.360;2022-10-16T06:36:24;3.88;;;1.05;;
74421;SDS011;62856;51.446;8.360;2022-10-16T06:38:50;3.05;;;1.00;;
74421;SDS011;62856;51.446;8.360;2022-10-16T06:41:17;5.88;;;1.20;;
74421;SDS011;62856;51.446;8.360;2022-10-16T06:43:44;3.80;;;1.20;;
74421;SDS011;62856;51.446;8.360;2022-10-16T06:46:11;3.80;;;1.17;;
74421;SDS011;62856;51.446;8.360;2022-10-16T06:48:38;3.42;;;1.20;;
74421;SDS011;62856;51.446;8.360;2022-10-16T06:51:05;3.20;;;1.17;;
74421;SDS011;62856;51.446;8.360;2022-10-16T06:53:36;6.55;;;1.27;;
74421;SDS011;62856;51.446;8.360;2022-10-16T06:58:34;3.95;;;1.20;;
74421;SDS011;62856;51.446;8.360;2022-10-16T07:00:59;3.53;;;1.10;;
74421;SDS011;62856;51.446;8.360;2022-10-16T07:03:24;1.73;;;0.80;;
74421;SDS011;62856;51.446;8.360;2022-10-16T07:05:50;2.65;;;1.00;;
74421;SDS011;62856;51.446;8.360;2022-10-16T07:08:15;2.85;;;1.10;;
74421;SDS011;62856;51.446;8.360;2022-10-16T07:10:41;5.28;;;1.30;;
74421;SDS011;62856;51.446;8.360;2022-10-16T07:13:06;4.65;;;1.25;;
74421;SDS011;62856;51.446;8.360;2022-10-16T07:15:32;3.13;;;1.15;;
74421;SDS011;62856;51.446;8.360;2022-10-16T07:18:04;3.42;;;1.23;;
74421;SDS011;62856;51.446;8.360;2022-10-16T07:20:29;4.22;;;1.27;;
74421;SDS011;62856;51.446;8.360;2022-10-16T07:22:55;4.45;;;1.27;;
74421;SDS011;62856;51.446;8.360;2022-10-16T07:25:20;3.88;;;1.10;;
74421;SDS011;62856;51.446;8.360;2022-10-16T07:27:45;3.67;;;1.30;;
74421;SDS011;62856;51.446;8.360;2022-10-16T07:30:11;3.70;;;1.20;;
74421;SDS011;62856;51.446;8.360;2022-10-16T07:32:37;3.60;;;1.00;;
74421;SDS011;62856;51.446;8.360;2022-10-16T07:35:02;3.63;;;1.20;;
74421;SDS011;62856;51.446;8.360;2022-10-16T07:37:28;2.05;;;0.95;;
74421;SDS011;62856;51.446;8.360;2022-10-16T07:39:53;3.80;;;0.93;;
74421;SDS011;62856;51.446;8.360;2022-10-16T07:42:19;4.00;;;1.30;;
74421;SDS011;62856;51.446;8.360;2022-10-16T07:44:45;3.30;;;1.02;;
74421;SDS011;62856;51.446;8.360;2022-10-16T07:47:10;4.97;;;1.30;;
74421;SDS011;62856;51.446;8.360;2022-10-16T07:49:36;3.30;;;1.13;;
74421;SDS011;62856;51.446;8.360;2022-10-16T07:52:01;4.72;;;1.33;;
74421;SDS011;62856;51.446;8.360;2022-10-16T07:54:26;4.80;;;1.10;;
74421;SDS011;62856;51.446;8.360;2022-10-16T07:56:52;4.45;;;1.30;;
74421;SDS011;62856;51.446;8.360;2022-10-16T07:59:17;4.47;;;1.23;;
74421;SDS011;62856;51.446;8.360;2022-10-16T08:01:42;2.95;;;1.15;;
74421;SDS011;62856;51.446;8.360;2022-10-16T08:04:08;3.03;;;1.00;;
74421;SDS011;62856;51.446;8.360;2022-10-16T08:06:38;8.45;;;1.40;;
74421;SDS011;62856;51.446;8.360;2022-10-16T08:09:05;3.42;;;1.10;;
74421;SDS011;62856;51.446;8.360;2022-10-16T08:11:31;3.35;;;1.20;;
74421;SDS011;62856;51.446;8.360;2022-10-16T08:13:57;3.03;;;1.00;;
74421;SDS011;62856;51.446;8.360;2022-10-16T08:16:22;3.75;;;0.90;;
74421;SDS011;62856;51.446;8.360;2022-10-16T08:18:48;2.45;;;1.05;;
74421;SDS011;62856;51.446;8.360;2022-10-16T08:21:15;3.45;;;1.08;;
74421;SDS011;62856;51.446;8.360;2022-10-16T08:23:42;2.30;;;0.90;;
74421;SDS011;62856;51.446;8.360;2022-10-16T08:26:09;1.05;;;0.65;;
74421;SDS011;62856;51.446;8.360;2022-10-16T08:28:35;1.60;;;0.77;;
74421;SDS011;62856;51.446;8.360;2022-10-16T08:31:19;2.00;;;0.82;;
74421;SDS011;62856;51.446;8.360;2022-10-16T08:33:44;2.13;;;0.80;;
74421;SDS011;62856;51.446;8.360;2022-10-16T08:36:12;2.38;;;0.77;;
74421;SDS011;62856;51.446;8.360;2022-10-16T08:38:38;3.38;;;1.10;;
74421;SDS011;62856;51.446;8.360;2022-10-16T08:43:41;2.38;;;1.10;;
74421;SDS011;62856;51.446;8.360;2022-10-16T08:46:15;3.40;;;1.05;;
74421;SDS011;62856;51.446;8.360;2022-10-16T08:48:56;3.50;;;0.95;;
74421;SDS011;62856;51.446;8.360;2022-10-16T08:51:25;3.25;;;0.90;;
74421;SDS011;62856;51.446;8.360;2022-10-16T08:53:55;3.60;;;1.10;;
74421;SDS011;62856;51.446;8.360;2022-10-16T08:56:23;3.47;;;1.05;;
74421;SDS011;62856;51.446;8.360;2022-10-16T08:58:50;3.85;;;1.40;;
74421;SDS011;62856;51.446;8.360;2022-10-16T09:01:17;4.00;;;1.00;;
74421;SDS011;62856;51.446;8.360;2022-10-16T09:06:40;5.30;;;1.27;;
74421;SDS011;62856;51.446;8.360;2022-10-16T09:09:27;3.60;;;1.10;;
74421;SDS011;62856;51.446;8.360;2022-10-16T09:12:07;3.03;;;1.17;;
74421;SDS011;62856;51.446;8.360;2022-10-16T09:20:06;3.40;;;1.25;;
74421;SDS011;62856;51.446;8.360;2022-10-16T09:22:43;3.05;;;1.13;;
74421;SDS011;62856;51.446;8.360;2022-10-16T09:25:14;3.55;;;1.20;;
74421;SDS011;62856;51.446;8.360;2022-10-16T09:27:41;4.50;;;1.10;;
74421;SDS011;62856;51.446;8.360;2022-10-16T09:30:19;3.40;;;1.20;;
74421;SDS011;62856;51.446;8.360;2022-10-16T09:32:46;3.67;;;1.38;;
74421;SDS011;62856;51.446;8.360;2022-10-16T09:35:19;1.95;;;0.93;;
74421;SDS011;62856;51.446;8.360;2022-10-16T09:37:49;3.83;;;1.10;;
74421;SDS011;62856;51.446;8.360;2022-10-16T09:40:25;20.25;;;6.32;;
74421;SDS011;62856;51.446;8.360;2022-10-16T09:45:22;4.75;;;0.82;;
74421;SDS011;62856;51.446;8.360;2022-10-16T09:47:48;2.88;;;0.80;;
74421;SDS011;62856;51.446;8.360;2022-10-16T09:50:22;4.88;;;0.98;;
74421;SDS011;62856;51.446;8.360;2022-10-16T09:52:51;2.42;;;0.93;;
74421;SDS011;62856;51.446;8.360;2022-10-16T09:55:27;1.95;;;0.90;;
74421;SDS011;62856;51.446;8.360;2022-10-16T09:57:53;3.55;;;1.10;;
74421;SDS011;62856;51.446;8.360;2022-10-16T10:00:20;3.55;;;0.80;;
74421;SDS011;62856;51.446;8.360;2022-10-16T10:02:46;1.65;;;0.70;;
74421;SDS011;62856;51.446;8.360;2022-10-16T10:05:20;3.63;;;1.20;;
74421;SDS011;62856;51.446;8.360;2022-10-16T10:08:00;2.00;;;0.68;;
74421;SDS011;62856;51.446;8.360;2022-10-16T10:10:36;2.15;;;0.75;;
74421;SDS011;62856;51.446;8.360;2022-10-16T10:13:16;1.08;;;0.70;;
74421;SDS011;62856;51.446;8.360;2022-10-16T10:15:44;3.35;;;1.27;;
74421;SDS011;62856;51.446;8.360;2022-10-16T10:18:16;2.60;;;1.10;;
74421;SDS011;62856;51.446;8.360;2022-10-16T10:20:43;3.10;;;0.80;;
74421;SDS011;62856;51.446;8.360;2022-10-16T10:23:21;1.92;;;0.60;;
74421;SDS011;62856;51.446;8.360;2022-10-16T10:33:43;1.50;;;0.60;;
74421;SDS011;62856;51.446;8.360;2022-10-16T10:38:50;1.05;;;0.47;;
74421;SDS011;62856;51.446;8.360;2022-10-16T10:46:42;0.82;;;0.47;;
74421;SDS011;62856;51.446;8.360;2022-10-16T10:49:37;1.92;;;0.77;;
74421;SDS011;62856;51.446;8.360;2022-10-16T11:01:23;1.17;;;0.45;;
74421;SDS011;62856;51.446;8.360;2022-10-16T11:06:41;0.80;;;0.43;;
74421;SDS011;62856;51.446;8.360;2022-10-16T11:14:30;1.27;;;0.52;;
74421;SDS011;62856;51.446;8.360;2022-10-16T11:19:53;0.77;;;0.40;;
74421;SDS011;62856;51.446;8.360;2022-10-16T11:25:22;0.90;;;0.50;;
74421;SDS011;62856;51.446;8.360;2022-10-16T11:27:57;1.75;;;0.68;;
74421;SDS011;62856;51.446;8.360;2022-10-16T11:30:25;2.58;;;0.70;;
74421;SDS011;62856;51.446;8.360;2022-10-16T11:35:44;1.95;;;0.80;;
74421;SDS011;62856;51.446;8.360;2022-10-16T11:40:49;2.80;;;0.70;;
74421;SDS011;62856;51.446;8.360;2022-10-16T11:43:37;1.17;;;0.60;;
74421;SDS011;62856;51.446;8.360;2022-10-16T11:46:12;0.70;;;0.45;;
74421;SDS011;62856;51.446;8.360;2022-10-16T11:56:28;2.08;;;0.82;;
74421;SDS011;62856;51.446;8.360;2022-10-16T11:59:01;3.45;;;0.60;;
74421;SDS011;62856;51.446;8.360;2022-10-16T12:01:41;1.55;;;0.60;;
74421;SDS011;62856;51.446;8.360;2022-10-16T12:04:14;2.42;;;0.90;;
74421;SDS011;62856;51.446;8.360;2022-10-16T12:06:57;1.75;;;0.60;;
74421;SDS011;62856;51.446;8.360;2022-10-16T12:09:39;3.83;;;0.70;;
74421;SDS011;62856;51.446;8.360;2022-10-16T12:15:18;1.35;;;0.68;;
74421;SDS011;62856;51.446;8.360;2022-10-16T12:17:46;3.80;;;0.80;;
74421;SDS011;62856;51.446;8.360;2022-10-16T12:22:37;0.77;;;0.43;;
74421;SDS011;62856;51.446;8.360;2022-10-16T12:25:22;1.05;;;0.43;;
74421;SDS011;62856;51.446;8.360;2022-10-16T12:27:54;1.15;;;0.60;;
74421;SDS011;62856;51.446;8.360;2022-10-16T12:30:22;2.83;;;0.63;;
74421;SDS011;62856;51.446;8.360;2022-10-16T12:33:00;1.40;;;0.55;;
74421;SDS011;62856;51.446;8.360;2022-10-16T12:35:32;5.63;;;1.45;;
74421;SDS011;62856;51.446;8.360;2022-10-16T12:38:14;1.85;;;0.63;;
74421;SDS011;62856;51.446;8.360;2022-10-16T12:40:44;2.83;;;0.77;;
74421;SDS011;62856;51.446;8.360;2022-10-16T12:43:27;1.88;;;0.40;;
74421;SDS011;62856;51.446;8.360;2022-10-16T12:46:00;2.20;;;0.70;;
74421;SDS011;62856;51.446;8.360;2022-10-16T12:48:27;1.48;;;0.60;;
74421;SDS011;62856;51.446;8.360;2022-10-16T12:50:53;2.50;;;0.65;;
74421;SDS011;62856;51.446;8.360;2022-10-16T12:53:23;1.15;;;0.50;;
74421;SDS011;62856;51.446;8.360;2022-10-16T12:58:23;0.40;;;0.40;;
74421;SDS011;62856;51.446;8.360;2022-10-16T13:01:15;1.48;;;0.70;;
74421;SDS011;62856;51.446;8.360;2022-10-16T13:04:10;1.25;;;0.50;;
74421;SDS011;62856;51.446;8.360;2022-10-16T13:10:09;1.60;;;0.40;;
74421;SDS011;62856;51.446;8.360;2022-10-16T13:12:47;2.20;;;0.40;;
74421;SDS011;62856;51.446;8.360;2022-10-16T13:15:31;2.50;;;0.52;;
74421;SDS011;62856;51.446;8.360;2022-10-16T13:20:50;0.25;;;0.22;;
74421;SDS011;62856;51.446;8.360;2022-10-16T13:23:23;3.42;;;0.77;;
74421;SDS011;62856;51.446;8.360;2022-10-16T13:28:42;2.50;;;0.60;;
74421;SDS011;62856;51.446;8.360;2022-10-16T13:31:13;0.30;;;0.30;;
74421;SDS011;62856;51.446;8.360;2022-10-16T13:33:43;0.95;;;0.30;;
74421;SDS011;62856;51.446;8.360;2022-10-16T13:36:26;1.33;;;0.50;;
74421;SDS011;62856;51.446;8.360;2022-10-16T13:39:09;4.45;;;1.13;;
74421;SDS011;62856;51.446;8.360;2022-10-16T13:44:18;2.17;;;0.70;;
74421;SDS011;62856;51.446;8.360;2022-10-16T13:46:45;0.50;;;0.30;;
74421;SDS011;62856;51.446;8.360;2022-10-16T13:49:15;1.83;;;0.60;;
74421;SDS011;62856;51.446;8.360;2022-10-16T13:55:13;2.20;;;0.68;;
74421;SDS011;62856;51.446;8.360;2022-10-16T13:57:39;2.30;;;0.40;;
74421;SDS011;62856;51.446;8.360;2022-10-16T14:00:22;0.55;;;0.32;;
74421;SDS011;62856;51.446;8.360;2022-10-16T14:02:55;3.33;;;0.90;;
74421;SDS011;62856;51.446;8.360;2022-10-16T14:05:23;1.10;;;0.40;;
74421;SDS011;62856;51.446;8.360;2022-10-16T14:07:50;1.63;;;0.50;;
74421;SDS011;62856;51.446;8.360;2022-10-16T14:10:30;2.28;;;0.68;;
74421;SDS011;62856;51.446;8.360;2022-10-16T14:13:01;1.33;;;0.47;;
74421;SDS011;62856;51.446;8.360;2022-10-16T14:15:30;4.53;;;1.20;;
74421;SDS011;62856;51.446;8.360;2022-10-16T14:20:24;1.27;;;0.63;;
74421;SDS011;62856;51.446;8.360;2022-10-16T14:22:59;2.70;;;0.60;;
74421;SDS011;62856;51.446;8.360;2022-10-16T14:25:30;1.08;;;0.50;;
74421;SDS011;62856;51.446;8.360;2022-10-16T14:28:04;1.90;;;0.50;;
74421;SDS011;62856;51.446;8.360;2022-10-16T14:30:48;0.63;;;0.40;;
74421;SDS011;62856;51.446;8.360;2022-10-16T14:33:24;2.50;;;0.90;;
74421;SDS011;62856;51.446;8.360;2022-10-16T14:36:12;1.13;;;0.52;;
74421;SDS011;62856;51.446;8.360;2022-10-16T14:38:40;2.55;;;0.60;;
74421;SDS011;62856;51.446;8.360;2022-10-16T14:41:07;2.00;;;0.50;;
74421;SDS011;62856;51.446;8.360;2022-10-16T14:43:34;1.40;;;0.52;;
74421;SDS011;62856;51.446;8.360;2022-10-16T14:46:02;0.55;;;0.40;;
74421;SDS011;62856;51.446;8.360;2022-10-16T14:48:31;2.30;;;0.47;;
74421;SDS011;62856;51.446;8.360;2022-10-16T14:50:57;2.47;;;0.50;;
74421;SDS011;62856;51.446;8.360;2022-10-16T14:53:22;0.90;;;0.55;;
74421;SDS011;62856;51.446;8.360;2022-10-16T14:55:48;2.50;;;0.50;;
74421;SDS011;62856;51.446;8.360;2022-10-16T14:58:15;1.48;;;0.55;;
74421;SDS011;62856;51.446;8.360;2022-10-16T15:00:42;0.22;;;0.20;;
74421;SDS011;62856;51.446;8.360;2022-10-16T15:03:08;1.00;;;0.52;;
74421;SDS011;62856;51.446;8.360;2022-10-16T15:05:33;0.98;;;0.40;;
74421;SDS011;62856;51.446;8.360;2022-10-16T15:07:58;1.02;;;0.47;;
74421;SDS011;62856;51.446;8.360;2022-10-16T15:10:24;1.45;;;0.40;;
74421;SDS011;62856;51.446;8.360;2022-10-16T15:12:52;1.50;;;0.40;;
74421;SDS011;62856;51.446;8.360;2022-10-16T15:15:23;0.98;;;0.40;;
74421;SDS011;62856;51.446;8.360;2022-10-16T15:17:56;1.02;;;0.40;;
74421;SDS011;62856;51.446;8.360;2022-10-16T15:20:23;1.58;;;0.50;;
74421;SDS011;62856;51.446;8.360;2022-10-16T15:22:49;1.52;;;0.40;;
74421;SDS011;62856;51.446;8.360;2022-10-16T15:25:26;1.70;;;0.70;;
74421;SDS011;62856;51.446;8.360;2022-10-16T15:28:02;4.03;;;0.82;;
74421;SDS011;62856;51.446;8.360;2022-10-16T15:30:28;4.18;;;0.65;;
74421;SDS011;62856;51.446;8.360;2022-10-16T15:32:54;1.98;;;0.65;;
74421;SDS011;62856;51.446;8.360;2022-10-16T15:35:20;3.45;;;0.50;;
74421;SDS011;62856;51.446;8.360;2022-10-16T15:37:46;1.05;;;0.50;;
74421;SDS011;62856;51.446;8.360;2022-10-16T15:40:12;1.63;;;0.57;;
74421;SDS011;62856;51.446;8.360;2022-10-16T15:42:37;0.30;;;0.22;;
74421;SDS011;62856;51.446;8.360;2022-10-16T15:45:03;1.50;;;0.35;;
74421;SDS011;62856;51.446;8.360;2022-10-16T15:47:29;0.65;;;0.45;;
74421;SDS011;62856;51.446;8.360;2022-10-16T15:49:54;3.67;;;0.93;;
74421;SDS011;62856;51.446;8.360;2022-10-16T15:52:19;3.33;;;0.90;;
74421;SDS011;62856;51.446;8.360;2022-10-16T15:54:45;3.28;;;0.80;;
74421;SDS011;62856;51.446;8.360;2022-10-16T15:57:10;1.98;;;0.63;;
74421;SDS011;62856;51.446;8.360;2022-10-16T15:59:35;2.22;;;0.60;;
74421;SDS011;62856;51.446;8.360;2022-10-16T16:02:01;1.43;;;0.70;;
74421;SDS011;62856;51.446;8.360;2022-10-16T16:04:26;1.60;;;0.70;;
74421;SDS011;62856;51.446;8.360;2022-10-16T16:06:55;2.10;;;0.60;;
74421;SDS011;62856;51.446;8.360;2022-10-16T16:09:20;1.60;;;0.65;;
74421;SDS011;62856;51.446;8.360;2022-10-16T16:11:45;2.92;;;0.90;;
74421;SDS011;62856;51.446;8.360;2022-10-16T16:14:12;2.08;;;0.93;;
74421;SDS011;62856;51.446;8.360;2022-10-16T16:16:38;1.27;;;0.52;;
74421;SDS011;62856;51.446;8.360;2022-10-16T16:19:06;2.40;;;0.80;;
74421;SDS011;62856;51.446;8.360;2022-10-16T16:21:35;6.18;;;1.38;;
74421;SDS011;62856;51.446;8.360;2022-10-16T16:24:00;2.70;;;0.80;;
74421;SDS011;62856;51.446;8.360;2022-10-16T16:26:32;2.08;;;0.70;;
74421;SDS011;62856;51.446;8.360;2022-10-16T16:29:01;5.75;;;1.45;;
74421;SDS011;62856;51.446;8.360;2022-10-16T16:31:28;6.15;;;1.27;;
74421;SDS011;62856;51.446;8.360;2022-10-16T16:33:55;3.55;;;0.57;;
74421;SDS011;62856;51.446;8.360;2022-10-16T16:36:21;2.45;;;0.43;;
74421;SDS011;62856;51.446;8.360;2022-10-16T16:38:48;2.75;;;0.82;;
74421;SDS011;62856;51.446;8.360;2022-10-16T16:41:17;1.55;;;0.50;;
74421;SDS011;62856;51.446;8.360;2022-10-16T16:43:45;0.88;;;0.55;;
74421;SDS011;62856;51.446;8.360;2022-10-16T16:46:12;1.50;;;0.55;;
74421;SDS011;62856;51.446;8.360;2022-10-16T16:48:38;0.95;;;0.40;;
74421;SDS011;62856;51.446;8.360;2022-10-16T16:51:07;5.15;;;1.48;;